createdAt,value
2022-09-16T00:00:53.142Z,820.67
2022-09-16T00:01:53.104Z,820.58
2022-09-16T00:02:53.072Z,820.48
2022-09-16T00:03:53.038Z,820.59
2022-09-16T00:04:53.023Z,820.41
2022-09-16T00:05:53.055Z,820.54
2022-09-16T00:06:53.021Z,820.62
2022-09-16T00:07:52.992Z,820.88
2022-09-16T00:08:53.051Z,820.71
2022-09-16T00:09:52.969Z,820.55
2022-09-16T00:10:52.991Z,820.69
2022-09-16T00:11:52.949Z,820.63
2022-09-16T00:12:52.951Z,820.66
2022-09-16T00:13:52.946Z,820.81
2022-09-16T00:14:52.912Z,821.06
2022-09-16T00:15:53.013Z,821.03
2022-09-16T00:16:52.887Z,820.98
2022-09-16T00:17:52.878Z,821.25
2022-09-16T00:18:52.872Z,820.99
2022-09-16T00:19:52.871Z,820.95
2022-09-16T00:20:52.869Z,820.93
2022-09-16T00:21:52.861Z,821.06
2022-09-16T00:22:52.833Z,821.22
2022-09-16T00:23:52.846Z,821.07
2022-09-16T00:24:52.805Z,821.08
2022-09-16T00:25:52.801Z,820.79
2022-09-16T00:26:52.784Z,820.82
2022-09-16T00:27:52.765Z,820.96
2022-09-16T00:28:52.759Z,821.17
2022-09-16T00:29:52.867Z,821.05
2022-09-16T00:30:52.754Z,821.14
2022-09-16T00:31:52.779Z,821.32
2022-09-16T00:32:52.727Z,821.41
2022-09-16T00:33:52.714Z,821.32
2022-09-16T00:34:52.692Z,821.06
2022-09-16T00:35:52.676Z,821.51
2022-09-16T00:36:52.680Z,821.50
2022-09-16T00:37:52.680Z,821.40
2022-09-16T00:38:52.920Z,821.53
2022-09-16T00:39:52.695Z,821.43
2022-09-16T00:40:52.644Z,821.70
2022-09-16T00:41:52.644Z,821.49
2022-09-16T00:42:52.601Z,821.40
2022-09-16T00:43:52.600Z,821.32
2022-09-16T00:44:52.573Z,821.32
2022-09-16T00:45:59.687Z,821.23
2022-09-16T00:46:52.642Z,821.28
2022-09-16T00:47:52.579Z,821.45
2022-09-16T00:48:52.536Z,821.45
2022-09-16T00:49:52.531Z,821.33
2022-09-16T00:50:52.514Z,821.27
2022-09-16T00:51:52.527Z,821.14
2022-09-16T00:52:52.493Z,821.44
2022-09-16T00:53:52.518Z,821.54
2022-09-16T00:54:52.458Z,821.52
2022-09-16T00:55:52.452Z,821.53
2022-09-16T00:56:52.446Z,821.39
2022-09-16T00:57:52.439Z,821.41
2022-09-16T00:58:52.423Z,821.31
2022-09-16T00:59:52.417Z,821.22
2022-09-16T01:00:52.465Z,821.26
2022-09-16T01:01:52.422Z,821.46
2022-09-16T01:02:52.377Z,821.08
2022-09-16T01:03:52.372Z,821.29
2022-09-16T01:04:52.344Z,821.24
2022-09-16T01:05:52.339Z,821.38
2022-09-16T01:06:52.331Z,821.38
2022-09-16T01:07:52.315Z,821.52
2022-09-16T01:08:52.313Z,821.39
2022-09-16T01:09:52.317Z,821.33
2022-09-16T01:10:52.280Z,821.28
2022-09-16T01:11:52.308Z,821.00
2022-09-16T01:12:52.255Z,821.62
2022-09-16T01:13:52.262Z,822.00
2022-09-16T01:14:52.253Z,821.95
2022-09-16T01:15:52.304Z,822.33
2022-09-16T01:16:52.221Z,822.29
2022-09-16T01:17:52.204Z,822.41
2022-09-16T01:18:52.189Z,822.39
2022-09-16T01:19:52.182Z,822.45
2022-09-16T01:20:52.184Z,822.39
2022-09-16T01:21:52.177Z,822.52
2022-09-16T01:22:52.144Z,822.51
2022-09-16T01:23:52.137Z,822.83
2022-09-16T01:24:52.136Z,823.08
2022-09-16T01:25:52.143Z,823.07
2022-09-16T01:26:52.099Z,823.06
2022-09-16T01:27:52.095Z,822.93
2022-09-16T01:28:52.078Z,823.08
2022-09-16T01:29:52.094Z,822.78
2022-09-16T01:30:52.122Z,822.74
2022-09-16T01:31:52.060Z,822.94
2022-09-16T01:32:52.034Z,823.03
2022-09-16T01:33:52.058Z,823.15
2022-09-16T01:34:52.062Z,823.13
2022-09-16T01:35:52.026Z,823.30
2022-09-16T01:36:51.987Z,823.03
2022-09-16T01:37:51.982Z,822.84
2022-09-16T01:38:52.073Z,823.35
2022-09-16T01:39:52.013Z,823.45
2022-09-16T01:40:51.950Z,823.47
2022-09-16T01:41:51.968Z,823.54
2022-09-16T01:42:51.921Z,823.47
2022-09-16T01:43:51.914Z,823.49
2022-09-16T01:44:51.910Z,823.61
2022-09-16T01:45:51.911Z,823.57
2022-09-16T01:46:51.942Z,823.76
2022-09-16T01:47:51.876Z,823.81
2022-09-16T01:48:53.881Z,823.77
2022-09-16T01:49:51.853Z,823.83
2022-09-16T01:50:51.829Z,823.79
2022-09-16T01:51:51.827Z,823.88
2022-09-16T01:52:51.827Z,824.11
2022-09-16T01:53:51.827Z,824.08
2022-09-16T01:54:51.793Z,824.17
2022-09-16T01:55:51.790Z,824.18
2022-09-16T01:56:51.789Z,824.38
2022-09-16T01:57:51.778Z,824.28
2022-09-16T01:58:51.754Z,824.34
2022-09-16T01:59:51.735Z,824.49
2022-09-16T02:00:51.754Z,824.48
2022-09-16T02:01:51.871Z,824.48
2022-09-16T02:02:51.739Z,824.65
2022-09-16T02:03:51.692Z,824.59
2022-09-16T02:04:51.688Z,824.70
2022-09-16T02:05:51.672Z,824.86
2022-09-16T02:06:51.665Z,824.85
2022-09-16T02:07:51.648Z,824.88
2022-09-16T02:08:51.637Z,824.87
2022-09-16T02:09:51.633Z,824.82
2022-09-16T02:10:51.620Z,824.94
2022-09-16T02:11:51.601Z,824.90
2022-09-16T02:12:51.586Z,824.99
2022-09-16T02:13:51.600Z,825.17
2022-09-16T02:14:51.576Z,824.94
2022-09-16T02:15:51.610Z,824.94
2022-09-16T02:16:51.554Z,824.82
2022-09-16T02:17:51.555Z,825.11
2022-09-16T02:18:51.517Z,825.01
2022-09-16T02:19:51.538Z,825.13
2022-09-16T02:20:51.493Z,825.31
2022-09-16T02:21:51.496Z,825.43
2022-09-16T02:22:51.475Z,825.36
2022-09-16T02:23:51.471Z,825.75
2022-09-16T02:24:51.449Z,825.59
2022-09-16T02:25:51.480Z,825.50
2022-09-16T02:26:51.446Z,825.38
2022-09-16T02:27:51.433Z,825.55
2022-09-16T02:28:51.414Z,825.69
2022-09-16T02:29:51.417Z,825.59
2022-09-16T02:30:51.456Z,825.79
2022-09-16T02:31:55.607Z,825.94
2022-09-16T02:32:51.395Z,826.02
2022-09-16T02:33:51.373Z,826.16
2022-09-16T02:34:51.361Z,826.42
2022-09-16T02:35:51.354Z,826.61
2022-09-16T02:36:51.329Z,826.68
2022-09-16T02:37:51.318Z,827.11
2022-09-16T02:38:51.289Z,826.84
2022-09-16T02:39:51.341Z,826.87
2022-09-16T02:40:51.291Z,826.87
2022-09-16T02:41:51.274Z,827.17
2022-09-16T02:42:51.254Z,827.08
2022-09-16T02:43:51.259Z,826.93
2022-09-16T02:44:51.244Z,827.07
2022-09-16T02:45:51.239Z,826.99
2022-09-16T02:46:58.729Z,827.04
2022-09-16T02:47:51.193Z,826.97
2022-09-16T02:48:51.179Z,827.13
2022-09-16T02:49:51.183Z,827.11
2022-09-16T02:50:51.159Z,827.23
2022-09-16T02:51:51.148Z,827.00
2022-09-16T02:52:51.133Z,827.25
2022-09-16T02:53:51.126Z,827.13
2022-09-16T02:54:51.145Z,826.99
2022-09-16T02:55:51.116Z,827.07
2022-09-16T02:56:51.088Z,826.99
2022-09-16T02:57:51.110Z,826.89
2022-09-16T02:58:51.064Z,826.99
2022-09-16T02:59:51.062Z,826.88
2022-09-16T03:00:51.043Z,827.01
2022-09-16T03:01:51.142Z,826.90
2022-09-16T03:02:51.107Z,827.07
2022-09-16T03:03:51.032Z,826.95
2022-09-16T03:04:51.012Z,827.24
2022-09-16T03:05:50.997Z,827.11
2022-09-16T03:06:51.007Z,827.66
2022-09-16T03:07:50.974Z,827.82
2022-09-16T03:08:50.968Z,827.62
2022-09-16T03:09:50.946Z,827.71
2022-09-16T03:10:50.933Z,827.83
2022-09-16T03:11:50.952Z,828.16
2022-09-16T03:12:50.908Z,828.06
2022-09-16T03:13:50.916Z,827.91
2022-09-16T03:14:50.924Z,828.57
2022-09-16T03:15:50.912Z,828.58
2022-09-16T03:16:50.876Z,828.62
2022-09-16T03:17:50.899Z,828.78
2022-09-16T03:18:50.842Z,828.85
2022-09-16T03:19:50.834Z,828.92
2022-09-16T03:20:50.817Z,828.95
2022-09-16T03:21:50.811Z,829.24
2022-09-16T03:22:50.826Z,829.32
2022-09-16T03:23:50.803Z,829.59
2022-09-16T03:24:50.800Z,829.80
2022-09-16T03:25:50.766Z,829.99
2022-09-16T03:26:50.770Z,830.12
2022-09-16T03:27:50.753Z,830.46
2022-09-16T03:28:50.734Z,830.68
2022-09-16T03:29:50.724Z,830.77
2022-09-16T03:30:50.793Z,830.80
2022-09-16T03:31:50.704Z,831.15
2022-09-16T03:32:50.696Z,831.00
2022-09-16T03:33:50.697Z,831.19
2022-09-16T03:34:50.660Z,831.18
2022-09-16T03:35:50.654Z,831.42
2022-09-16T03:36:50.652Z,831.64
2022-09-16T03:37:50.665Z,831.68
2022-09-16T03:38:50.625Z,831.90
2022-09-16T03:39:50.643Z,831.78
2022-09-16T03:40:50.591Z,832.08
2022-09-16T03:41:50.588Z,832.21
2022-09-16T03:42:50.572Z,832.37
2022-09-16T03:43:50.574Z,832.63
2022-09-16T03:44:50.548Z,832.55
2022-09-16T03:45:50.564Z,832.42
2022-09-16T03:46:50.546Z,832.48
2022-09-16T03:47:50.531Z,832.56
2022-09-16T03:48:50.502Z,832.72
2022-09-16T03:49:50.533Z,832.85
2022-09-16T03:50:50.480Z,832.91
2022-09-16T03:51:50.477Z,833.03
2022-09-16T03:52:50.457Z,832.83
2022-09-16T03:53:50.461Z,832.53
2022-09-16T03:54:50.441Z,832.42
2022-09-16T03:55:50.432Z,832.33
2022-09-16T03:56:50.429Z,832.42
2022-09-16T03:57:50.417Z,832.49
2022-09-16T03:58:50.418Z,832.39
2022-09-16T03:59:50.940Z,832.42
2022-09-16T04:00:50.371Z,832.31
2022-09-16T04:01:50.466Z,832.51
2022-09-16T04:02:50.460Z,832.48
2022-09-16T04:03:50.345Z,832.59
2022-09-16T04:04:50.326Z,832.62
2022-09-16T04:05:50.333Z,832.56
2022-09-16T04:06:50.309Z,832.86
2022-09-16T04:07:50.301Z,832.91
2022-09-16T04:08:50.285Z,832.54
2022-09-16T04:09:50.280Z,832.89
2022-09-16T04:10:50.259Z,832.72
2022-09-16T04:11:50.250Z,832.68
2022-09-16T04:12:50.250Z,832.68
2022-09-16T04:13:50.243Z,832.79
2022-09-16T04:14:50.227Z,832.61
2022-09-16T04:15:50.298Z,832.77
2022-09-16T04:16:50.196Z,832.53
2022-09-16T04:17:50.188Z,832.59
2022-09-16T04:18:50.189Z,832.38
2022-09-16T04:19:50.153Z,832.83
2022-09-16T04:20:50.157Z,832.78
2022-09-16T04:21:50.161Z,832.80
2022-09-16T04:22:50.471Z,832.72
2022-09-16T04:23:50.112Z,832.69
2022-09-16T04:24:50.104Z,832.78
2022-09-16T04:25:50.088Z,832.75
2022-09-16T04:26:50.080Z,832.43
2022-09-16T04:27:50.094Z,832.35
2022-09-16T04:28:50.061Z,832.64
2022-09-16T04:29:50.050Z,832.66
2022-09-16T04:30:50.210Z,832.40
2022-09-16T04:31:50.020Z,832.37
2022-09-16T04:32:50.015Z,832.49
2022-09-16T04:33:50.009Z,832.73
2022-09-16T04:34:49.997Z,832.47
2022-09-16T04:35:49.977Z,832.38
2022-09-16T04:36:49.970Z,832.52
2022-09-16T04:37:49.985Z,832.48
2022-09-16T04:38:49.950Z,832.45
2022-09-16T04:39:49.964Z,832.62
2022-09-16T04:40:49.941Z,832.53
2022-09-16T04:41:49.920Z,832.53
2022-09-16T04:42:49.903Z,832.60
2022-09-16T04:43:49.900Z,832.51
2022-09-16T04:44:49.880Z,832.68
2022-09-16T04:45:49.927Z,832.66
2022-09-16T04:46:49.859Z,833.18
2022-09-16T04:47:57.347Z,833.24
2022-09-16T04:48:49.847Z,833.27
2022-09-16T04:49:49.819Z,833.51
2022-09-16T04:50:49.826Z,833.61
2022-09-16T04:51:49.809Z,833.86
2022-09-16T04:52:49.791Z,834.00
2022-09-16T04:53:49.793Z,834.26
2022-09-16T04:54:49.783Z,834.60
2022-09-16T04:55:49.753Z,834.88
2022-09-16T04:56:49.747Z,835.03
2022-09-16T04:57:49.730Z,835.30
2022-09-16T04:58:49.738Z,835.23
2022-09-16T04:59:49.708Z,835.32
2022-09-16T05:00:49.712Z,835.65
2022-09-16T05:01:49.763Z,835.79
2022-09-16T05:02:49.697Z,836.05
2022-09-16T05:03:49.677Z,836.42
2022-09-16T05:04:49.665Z,836.78
2022-09-16T05:05:49.656Z,836.81
2022-09-16T05:06:49.655Z,836.71
2022-09-16T05:07:49.616Z,836.68
2022-09-16T05:08:49.620Z,836.88
2022-09-16T05:09:49.625Z,837.20
2022-09-16T05:10:49.593Z,837.40
2022-09-16T05:11:49.572Z,837.56
2022-09-16T05:12:49.580Z,837.73
2022-09-16T05:13:49.589Z,837.72
2022-09-16T05:14:49.550Z,837.91
2022-09-16T05:15:51.245Z,838.14
2022-09-16T05:16:49.532Z,837.98
2022-09-16T05:17:51.749Z,838.00
2022-09-16T05:18:49.528Z,838.00
2022-09-16T05:19:49.495Z,838.20
2022-09-16T05:20:49.486Z,838.30
2022-09-16T05:21:49.461Z,838.42
2022-09-16T05:22:49.459Z,838.38
2022-09-16T05:23:49.642Z,838.71
2022-09-16T05:24:49.453Z,838.85
2022-09-16T05:25:49.557Z,838.93
2022-09-16T05:26:49.430Z,839.15
2022-09-16T05:27:49.395Z,839.34
2022-09-16T05:28:49.393Z,839.57
2022-09-16T05:29:49.398Z,839.54
2022-09-16T05:30:49.413Z,839.75
2022-09-16T05:31:49.359Z,839.56
2022-09-16T05:32:49.373Z,839.81
2022-09-16T05:33:49.347Z,839.57
2022-09-16T05:34:49.333Z,839.56
2022-09-16T05:35:49.306Z,839.37
2022-09-16T05:36:49.313Z,839.62
2022-09-16T05:37:49.554Z,839.52
2022-09-16T05:39:11.072Z,839.45
2022-09-16T05:39:50.329Z,839.10
2022-09-16T05:40:49.293Z,839.24
2022-09-16T05:41:49.355Z,839.01
2022-09-16T05:42:49.253Z,838.76
2022-09-16T05:43:49.238Z,838.85
2022-09-16T05:44:49.228Z,838.60
2022-09-16T05:45:49.265Z,838.56
2022-09-16T05:46:49.198Z,838.12
2022-09-16T05:47:49.192Z,838.01
2022-09-16T05:48:49.236Z,837.80
2022-09-16T05:49:49.189Z,837.32
2022-09-16T05:50:49.146Z,837.26
2022-09-16T05:51:49.215Z,837.34
2022-09-16T05:52:49.126Z,837.35
2022-09-16T05:53:49.119Z,836.84
2022-09-16T05:54:49.146Z,836.88
2022-09-16T05:55:49.098Z,836.36
2022-09-16T05:56:49.080Z,836.20
2022-09-16T05:57:49.196Z,835.63
2022-09-16T05:58:49.064Z,835.45
2022-09-16T05:59:49.094Z,835.89
2022-09-16T06:00:49.034Z,835.91
2022-09-16T06:01:49.080Z,835.48
2022-09-16T06:02:50.054Z,835.33
2022-09-16T06:03:49.004Z,834.63
2022-09-16T06:04:49.066Z,834.68
2022-09-16T06:05:49.072Z,834.23
2022-09-16T06:06:49.016Z,834.65
2022-09-16T06:07:48.966Z,834.48
2022-09-16T06:08:48.957Z,834.72
2022-09-16T06:09:48.989Z,833.98
2022-09-16T06:10:48.958Z,833.90
2022-09-16T06:11:48.930Z,833.80
2022-09-16T06:12:48.912Z,833.65
2022-09-16T06:13:49.005Z,833.75
2022-09-16T06:14:48.923Z,834.17
2022-09-16T06:15:48.983Z,834.43
2022-09-16T06:16:48.862Z,835.14
2022-09-16T06:17:48.842Z,835.63
2022-09-16T06:18:48.833Z,836.16
2022-09-16T06:19:49.493Z,836.36
2022-09-16T06:20:48.839Z,836.34
2022-09-16T06:21:48.804Z,835.68
2022-09-16T06:22:48.803Z,836.00
2022-09-16T06:23:49.470Z,835.81
2022-09-16T06:24:49.471Z,835.66
2022-09-16T06:25:48.747Z,834.95
2022-09-16T06:26:48.753Z,834.89
2022-09-16T06:27:48.738Z,834.48
2022-09-16T06:28:48.722Z,834.22
2022-09-16T06:29:48.826Z,833.39
2022-09-16T06:30:48.762Z,832.34
2022-09-16T06:31:48.731Z,831.37
2022-09-16T06:32:48.676Z,830.51
2022-09-16T06:33:48.704Z,831.33
2022-09-16T06:34:48.676Z,831.25
2022-09-16T06:35:48.965Z,831.49
2022-09-16T06:36:48.649Z,831.08
2022-09-16T06:37:48.631Z,830.98
2022-09-16T06:38:48.637Z,829.90
2022-09-16T06:39:48.652Z,829.13
2022-09-16T06:40:48.601Z,829.32
2022-09-16T06:41:48.572Z,829.11
2022-09-16T06:42:48.593Z,829.25
2022-09-16T06:43:48.589Z,829.11
2022-09-16T06:44:48.557Z,828.48
2022-09-16T06:45:48.715Z,828.73
2022-09-16T06:46:48.549Z,829.15
2022-09-16T06:47:48.522Z,828.93
2022-09-16T06:48:58.450Z,829.04
2022-09-16T06:49:48.493Z,828.75
2022-09-16T06:50:48.489Z,829.38
2022-09-16T06:51:48.461Z,829.73
2022-09-16T06:52:48.458Z,830.12
2022-09-16T06:53:48.459Z,829.84
2022-09-16T06:54:48.447Z,828.58
2022-09-16T06:55:48.427Z,828.34
2022-09-16T06:56:48.446Z,828.44
2022-09-16T06:57:48.411Z,828.27
2022-09-16T06:58:48.406Z,828.26
2022-09-16T06:59:48.386Z,828.33
2022-09-16T07:00:48.373Z,827.69
2022-09-16T07:01:48.488Z,826.63
2022-09-16T07:02:48.416Z,825.55
2022-09-16T07:03:48.341Z,825.43
2022-09-16T07:04:48.344Z,826.70
2022-09-16T07:05:48.336Z,826.73
2022-09-16T07:07:08.668Z,827.17
2022-09-16T07:07:49.304Z,826.65
2022-09-16T07:08:48.308Z,826.15
2022-09-16T07:09:48.293Z,825.46
2022-09-16T07:10:48.268Z,825.45
2022-09-16T07:11:48.250Z,825.16
2022-09-16T07:12:48.233Z,823.49
2022-09-16T07:13:48.219Z,821.48
2022-09-16T07:14:48.225Z,819.86
2022-09-16T07:16:11.712Z,817.76
2022-09-16T07:16:49.250Z,816.04
2022-09-16T07:17:48.310Z,815.29
2022-09-16T07:18:49.072Z,814.89
2022-09-16T07:19:48.361Z,814.36
2022-09-16T07:20:49.041Z,814.10
2022-09-16T07:21:48.135Z,814.48
2022-09-16T07:22:48.126Z,814.18
2022-09-16T07:23:48.105Z,813.47
2022-09-16T07:24:48.199Z,811.89
2022-09-16T07:25:48.116Z,812.32
2022-09-16T07:26:48.158Z,816.12
2022-09-16T07:27:50.069Z,816.77
2022-09-16T07:28:48.151Z,816.81
2022-09-16T07:29:49.057Z,816.01
2022-09-16T07:30:48.094Z,815.39
2022-09-16T07:31:48.530Z,815.00
2022-09-16T07:32:48.022Z,815.02
2022-09-16T07:33:48.128Z,814.75
2022-09-16T07:34:47.989Z,814.82
2022-09-16T07:35:48.018Z,814.80
2022-09-16T07:36:47.994Z,814.87
2022-09-16T07:37:48.761Z,814.92
2022-09-16T07:38:48.209Z,814.15
2022-09-16T07:39:47.987Z,812.67
2022-09-16T07:40:47.922Z,811.72
2022-09-16T07:41:47.948Z,811.81
2022-09-16T07:42:47.899Z,812.90
2022-09-16T07:43:47.924Z,813.41
2022-09-16T07:44:47.877Z,813.32
2022-09-16T07:45:47.899Z,814.71
2022-09-16T07:46:47.877Z,814.82
2022-09-16T07:47:47.841Z,815.00
2022-09-16T07:48:47.963Z,817.11
2022-09-16T07:49:47.937Z,817.46
2022-09-16T07:50:48.023Z,818.56
2022-09-16T07:51:47.848Z,818.62
2022-09-16T07:52:47.980Z,818.75
2022-09-16T07:53:47.824Z,818.85
2022-09-16T07:54:47.769Z,818.69
2022-09-16T07:55:47.774Z,818.59
2022-09-16T07:56:47.776Z,817.53
2022-09-16T07:57:47.728Z,815.85
2022-09-16T07:58:47.738Z,814.35
2022-09-16T07:59:47.749Z,813.28
2022-09-16T08:00:48.531Z,811.65
2022-09-16T08:01:47.945Z,810.20
2022-09-16T08:02:47.719Z,809.78
2022-09-16T08:03:47.787Z,809.37
2022-09-16T08:04:47.680Z,807.96
2022-09-16T08:05:47.776Z,808.73
2022-09-16T08:06:47.714Z,808.38
2022-09-16T08:07:47.644Z,808.05
2022-09-16T08:08:47.779Z,807.79
2022-09-16T08:09:51.012Z,806.78
2022-09-16T08:10:48.597Z,804.78
2022-09-16T08:11:47.581Z,803.47
2022-09-16T08:12:47.563Z,801.79
2022-09-16T08:13:47.677Z,801.64
2022-09-16T08:14:47.564Z,804.02
2022-09-16T08:15:47.596Z,804.53
2022-09-16T08:16:47.623Z,804.17
2022-09-16T08:17:47.518Z,804.26
2022-09-16T08:18:47.497Z,804.17
2022-09-16T08:19:47.530Z,804.09
2022-09-16T08:20:47.483Z,802.77
2022-09-16T08:21:47.612Z,800.62
2022-09-16T08:22:47.452Z,799.67
2022-09-16T08:23:47.484Z,797.72
2022-09-16T08:24:47.434Z,796.20
2022-09-16T08:25:47.439Z,793.60
2022-09-16T08:26:47.456Z,793.98
2022-09-16T08:27:47.411Z,794.30
2022-09-16T08:29:07.328Z,794.44
2022-09-16T08:29:48.404Z,793.06
2022-09-16T08:30:51.281Z,793.86
2022-09-16T08:31:48.425Z,796.13
2022-09-16T08:32:47.352Z,797.00
2022-09-16T08:33:47.458Z,797.04
2022-09-16T08:34:47.393Z,797.77
2022-09-16T08:35:47.393Z,797.11
2022-09-16T08:36:47.295Z,795.47
2022-09-16T08:37:50.131Z,796.21
2022-09-16T08:38:47.380Z,796.39
2022-09-16T08:39:47.311Z,795.19
2022-09-16T08:40:47.272Z,795.35
2022-09-16T08:41:47.289Z,794.64
2022-09-16T08:42:47.237Z,794.03
2022-09-16T08:43:47.429Z,793.16
2022-09-16T08:44:47.206Z,791.24
2022-09-16T08:45:47.246Z,792.26
2022-09-16T08:46:47.240Z,791.17
2022-09-16T08:47:47.178Z,789.52
2022-09-16T08:48:47.173Z,788.93
2022-09-16T08:49:54.701Z,789.49
2022-09-16T08:50:47.140Z,789.87
2022-09-16T08:51:47.144Z,788.58
2022-09-16T08:52:47.121Z,788.53
2022-09-16T08:53:47.296Z,788.83
2022-09-16T08:54:47.116Z,790.27
2022-09-16T08:55:47.089Z,787.38
2022-09-16T08:56:47.088Z,786.15
2022-09-16T08:57:47.065Z,787.66
2022-09-16T08:58:47.059Z,789.03
2022-09-16T08:59:47.069Z,790.38
2022-09-16T09:00:47.119Z,789.63
2022-09-16T09:01:47.637Z,788.46
2022-09-16T09:02:47.224Z,787.12
2022-09-16T09:03:47.041Z,784.94
2022-09-16T09:04:46.992Z,786.12
2022-09-16T09:05:47.009Z,786.85
2022-09-16T09:06:46.970Z,784.33
2022-09-16T09:07:46.965Z,781.11
2022-09-16T09:08:47.571Z,781.89
2022-09-16T09:09:47.063Z,779.80
2022-09-16T09:10:47.541Z,782.74
2022-09-16T09:11:46.917Z,783.60
2022-09-16T09:12:48.207Z,783.51
2022-09-16T09:13:46.920Z,780.11
2022-09-16T09:14:46.881Z,778.69
2022-09-16T09:15:46.872Z,776.94
2022-09-16T09:16:47.112Z,776.95
2022-09-16T09:17:48.469Z,777.33
2022-09-16T09:18:46.882Z,776.87
2022-09-16T09:19:46.820Z,776.48
2022-09-16T09:20:46.829Z,775.05
2022-09-16T09:21:46.800Z,777.96
2022-09-16T09:22:46.781Z,781.91
2022-09-16T09:23:46.792Z,783.80
2022-09-16T09:24:46.761Z,785.33
2022-09-16T09:25:48.810Z,786.27
2022-09-16T09:26:46.744Z,787.88
2022-09-16T09:27:46.749Z,788.88
2022-09-16T09:28:46.838Z,787.17
2022-09-16T09:29:46.724Z,785.46
2022-09-16T09:30:46.749Z,784.70
2022-09-16T09:31:46.716Z,783.10
2022-09-16T09:32:49.789Z,782.38
2022-09-16T09:33:47.372Z,781.85
2022-09-16T09:34:46.704Z,783.93
2022-09-16T09:35:46.653Z,784.43
2022-09-16T09:36:47.635Z,784.74
2022-09-16T09:37:46.631Z,783.87
2022-09-16T09:38:46.701Z,782.64
2022-09-16T09:39:46.639Z,782.07
2022-09-16T09:40:46.592Z,781.88
2022-09-16T09:41:46.709Z,783.33
2022-09-16T09:42:46.582Z,780.86
2022-09-16T09:43:46.554Z,780.09
2022-09-16T09:44:46.565Z,777.44
2022-09-16T09:45:46.665Z,779.46
2022-09-16T09:46:46.513Z,780.54
2022-09-16T09:47:46.604Z,780.56
2022-09-16T09:48:46.499Z,777.90
2022-09-16T09:49:46.485Z,776.18
2022-09-16T09:50:46.530Z,774.37
2022-09-16T09:51:46.468Z,776.10
2022-09-16T09:52:46.445Z,776.04
2022-09-16T09:53:46.642Z,777.18
2022-09-16T09:54:46.517Z,778.03
2022-09-16T09:55:46.421Z,776.84
2022-09-16T09:56:46.498Z,776.96
2022-09-16T09:57:46.528Z,777.27
2022-09-16T09:58:46.389Z,775.68
2022-09-16T09:59:46.448Z,774.87
2022-09-16T10:00:46.422Z,773.89
2022-09-16T10:01:46.401Z,771.34
2022-09-16T10:02:49.750Z,768.94
2022-09-16T10:03:46.347Z,766.17
2022-09-16T10:04:46.315Z,764.18
2022-09-16T10:05:46.321Z,766.22
2022-09-16T10:06:46.304Z,769.11
2022-09-16T10:07:47.280Z,769.82
2022-09-16T10:08:46.317Z,770.21
2022-09-16T10:09:46.297Z,768.82
2022-09-16T10:10:46.248Z,769.63
2022-09-16T10:11:46.253Z,768.79
2022-09-16T10:12:46.222Z,768.23
2022-09-16T10:13:46.344Z,769.52
2022-09-16T10:14:46.203Z,769.81
2022-09-16T10:15:46.233Z,767.83
2022-09-16T10:16:46.226Z,767.12
2022-09-16T10:17:46.209Z,767.39
2022-09-16T10:18:47.081Z,765.85
2022-09-16T10:19:46.161Z,765.90
2022-09-16T10:20:46.335Z,764.21
2022-09-16T10:21:46.157Z,765.60
2022-09-16T10:22:49.165Z,764.98
2022-09-16T10:23:46.352Z,765.22
2022-09-16T10:24:48.746Z,763.56
2022-09-16T10:25:46.111Z,763.02
2022-09-16T10:26:46.086Z,764.06
2022-09-16T10:27:46.061Z,767.12
2022-09-16T10:28:46.043Z,767.26
2022-09-16T10:29:46.178Z,765.85
2022-09-16T10:30:46.042Z,768.24
2022-09-16T10:31:46.115Z,769.19
2022-09-16T10:32:46.007Z,768.15
2022-09-16T10:33:46.005Z,769.02
2022-09-16T10:34:46.008Z,767.77
2022-09-16T10:35:46.143Z,766.50
2022-09-16T10:36:46.079Z,764.11
2022-09-16T10:37:46.659Z,762.85
2022-09-16T10:38:52.594Z,764.31
2022-09-16T10:39:45.934Z,764.39
2022-09-16T10:40:45.966Z,765.03
2022-09-16T10:41:45.906Z,765.53
2022-09-16T10:42:45.916Z,765.49
2022-09-16T10:43:45.881Z,764.14
2022-09-16T10:44:45.888Z,763.44
2022-09-16T10:45:46.014Z,764.23
2022-09-16T10:46:45.843Z,766.55
2022-09-16T10:48:45.837Z,770.02
2022-09-16T10:49:45.821Z,768.21
2022-09-16T10:50:53.367Z,768.62
2022-09-16T10:51:45.814Z,769.53
2022-09-16T10:52:45.780Z,769.92
2022-09-16T10:53:45.979Z,771.64
2022-09-16T10:54:45.755Z,771.03
2022-09-16T10:55:46.207Z,769.49
2022-09-16T10:56:45.745Z,766.88
2022-09-16T10:57:45.737Z,764.39
2022-09-16T10:58:46.777Z,762.06
2022-09-16T10:59:45.703Z,761.71
2022-09-16T11:00:46.027Z,761.19
2022-09-16T11:01:47.689Z,758.51
2022-09-16T11:02:45.678Z,758.00
2022-09-16T11:03:45.725Z,756.97
2022-09-16T11:04:45.899Z,757.97
2022-09-16T11:05:46.286Z,756.28
2022-09-16T11:06:45.629Z,757.15
2022-09-16T11:07:45.613Z,756.23
2022-09-16T11:08:45.724Z,755.83
2022-09-16T11:09:45.594Z,754.67
2022-09-16T11:10:45.590Z,754.71
2022-09-16T11:11:45.580Z,755.62
2022-09-16T11:12:45.583Z,756.00
2022-09-16T11:13:45.552Z,758.74
2022-09-16T11:14:45.546Z,759.05
2022-09-16T11:15:45.572Z,755.93
2022-09-16T11:16:45.568Z,755.57
2022-09-16T11:17:45.632Z,757.80
2022-09-16T11:18:49.254Z,760.63
2022-09-16T11:19:46.491Z,763.58
2022-09-16T11:20:45.497Z,764.07
2022-09-16T11:21:45.471Z,762.95
2022-09-16T11:22:45.454Z,761.25
2022-09-16T11:23:45.434Z,758.59
2022-09-16T11:24:45.418Z,758.51
2022-09-16T11:25:45.414Z,760.93
2022-09-16T11:26:45.407Z,761.12
2022-09-16T11:27:45.465Z,762.38
2022-09-16T11:28:45.425Z,763.51
2022-09-16T11:29:45.368Z,765.00
2022-09-16T11:30:45.353Z,763.09
2022-09-16T11:31:45.435Z,760.79
2022-09-16T11:32:45.499Z,759.32
2022-09-16T11:33:45.459Z,759.85
2022-09-16T11:34:45.311Z,757.14
2022-09-16T11:35:45.307Z,759.02
2022-09-16T11:36:45.298Z,759.16
2022-09-16T11:37:45.282Z,756.88
2022-09-16T11:38:46.135Z,755.40
2022-09-16T11:39:45.257Z,753.13
2022-09-16T11:40:45.260Z,751.94
2022-09-16T11:41:45.244Z,749.40
2022-09-16T11:42:45.266Z,749.50
2022-09-16T11:43:45.213Z,748.64
2022-09-16T11:44:45.209Z,749.21
2022-09-16T11:45:45.206Z,749.57
2022-09-16T11:46:45.227Z,747.81
2022-09-16T11:47:45.645Z,746.38
2022-09-16T11:48:45.156Z,749.72
2022-09-16T11:49:45.283Z,749.75
2022-09-16T11:50:46.098Z,752.80
2022-09-16T11:51:45.125Z,754.49
2022-09-16T11:52:45.132Z,755.28
2022-09-16T11:53:46.390Z,753.66
2022-09-16T11:54:45.100Z,752.29
2022-09-16T11:55:45.078Z,750.03
2022-09-16T11:56:45.086Z,749.77
2022-09-16T11:57:45.058Z,749.96
2022-09-16T11:58:45.050Z,749.31
2022-09-16T11:59:45.052Z,750.86
2022-09-16T12:00:45.038Z,754.79
2022-09-16T12:01:45.254Z,753.04
2022-09-16T12:02:45.073Z,752.74
2022-09-16T12:03:45.005Z,753.14
2022-09-16T12:04:44.979Z,755.16
2022-09-16T12:05:45.095Z,755.07
2022-09-16T12:06:45.206Z,756.76
2022-09-16T12:07:44.942Z,756.49
2022-09-16T12:08:45.014Z,757.03
2022-09-16T12:09:44.942Z,756.13
2022-09-16T12:10:44.919Z,756.94
2022-09-16T12:11:44.897Z,758.07
2022-09-16T12:12:44.904Z,757.34
2022-09-16T12:13:44.888Z,755.01
2022-09-16T12:14:45.326Z,755.23
2022-09-16T12:15:44.855Z,753.78
2022-09-16T12:16:44.861Z,1303.61
2022-09-16T12:17:44.844Z,1303.61
2022-09-16T12:18:44.902Z,1303.61
2022-09-16T12:19:44.822Z,1303.61
2022-09-16T12:20:44.802Z,1303.61
2022-09-16T12:21:44.911Z,1303.61
2022-09-16T12:22:44.831Z,1303.61
2022-09-16T12:23:44.770Z,1303.61
2022-09-16T12:24:44.773Z,1303.61
2022-09-16T12:25:46.366Z,1303.61
2022-09-16T12:26:44.735Z,1303.61
2022-09-16T12:27:44.749Z,1303.61
2022-09-16T12:28:44.740Z,1303.61
2022-09-16T12:29:44.706Z,1303.61